»·PEaware :: N612SR KSBP-KBUR

N612SR :: KSBP-KBUR

FLIGHT INFORMATION

Flight Status: Arrived
Operator: Privately registered:
United States
More flights under this callsign
Pilot: Rod T. (6553)
Aircraft: CIRRUS SR-22
(SR22)
More flights by this aircraft type
Origin: KSBP San Luis Co Regl
United States
Destination: KBUR Bob Hope-Burbank
United States
More flights between these airports :: More routes between these airports
Route: RZS V186 FIM
File this flight plan on PilotEdge
Remarks: TEC Route SBAN37
Altitude:
(Current/Filed)
7,000ft
Speed:
(Current/Filed)
185kts
Departed: 11-Feb-17 04:20 PM
Arrived: 11-Feb-17 05:14 PM
Distance/Time
Traveled:
129nm/0:54
Distance/Time
To Go:
Arrived

Flight Plot

Page will automatically refresh every two minutes.


Map Options




Map Legend


Flown Route
Filed Route
Departure Airport
Arrival Airport
Navaid (VOR, NDB)
Fix

Horizontal Profiles

Position Reports

Time Latitude Longitude Heading Altitude Ground
Speed
11-Feb-17 15:54 35.238589 -120.637671 271 213ft 0kts
11-Feb-17 15:55 35.238589 -120.637671 271 213ft 0kts
11-Feb-17 15:56 35.238589 -120.637671 271 213ft 0kts
11-Feb-17 15:57 35.238589 -120.637671 271 213ft 0kts
11-Feb-17 15:58 35.238589 -120.637671 271 213ft 0kts
11-Feb-17 15:59 35.238589 -120.637671 271 213ft 0kts
11-Feb-17 16:00 35.238589 -120.637671 271 213ft 0kts
11-Feb-17 16:01 35.238589 -120.637678 273 213ft 0kts
11-Feb-17 16:02 35.238589 -120.637678 273 213ft 0kts
11-Feb-17 16:03 35.238589 -120.637678 273 213ft 0kts
11-Feb-17 16:04 35.238589 -120.637678 273 213ft 0kts
11-Feb-17 16:05 35.238295 -120.637971 180 213ft 0kts
11-Feb-17 16:06 35.238295 -120.637971 180 213ft 0kts
11-Feb-17 16:07 35.238295 -120.637971 180 213ft 0kts
11-Feb-17 16:08 35.238289 -120.637971 179 213ft 0kts
11-Feb-17 16:09 35.238289 -120.637971 179 213ft 0kts
11-Feb-17 16:10 35.238289 -120.637971 179 213ft 0kts
11-Feb-17 16:11 35.238289 -120.637971 179 213ft 0kts
11-Feb-17 16:12 35.238289 -120.637971 179 213ft 0kts
11-Feb-17 16:13 35.238289 -120.637971 179 213ft 0kts
11-Feb-17 16:14 35.238289 -120.637971 179 213ft 0kts
11-Feb-17 16:15 35.238281 -120.637971 179 213ft 1kts
11-Feb-17 16:16 35.235753 -120.636101 124 213ft 17kts
11-Feb-17 16:17 35.233258 -120.632257 214 213ft 0kts
11-Feb-17 16:18 35.233258 -120.632257 214 213ft 0kts
11-Feb-17 16:19 35.233258 -120.632257 214 213ft 0kts
11-Feb-17 16:20 35.233855 -120.634677 305 213ft 59kts
11-Feb-17 16:21 35.249133 -120.660009 313 1379ft 100kts
11-Feb-17 16:22 35.267838 -120.690546 302 2756ft 118kts
11-Feb-17 16:23 35.280877 -120.722318 301 4521ft 98kts
11-Feb-17 16:24 35.285997 -120.749516 200 5780ft 108kts
11-Feb-17 16:25 35.255350 -120.730778 163 6999ft 144kts
11-Feb-17 16:26 35.215742 -120.704908 163 6995ft 169kts
11-Feb-17 16:27 35.182456 -120.657855 141 6994ft 186kts
11-Feb-17 16:28 35.147764 -120.610883 142 6994ft 186kts
11-Feb-17 16:29 35.112785 -120.563982 142 6994ft 186kts
11-Feb-17 16:30 35.077840 -120.517212 142 6994ft 186kts
11-Feb-17 16:31 35.042941 -120.470556 142 6994ft 186kts
11-Feb-17 16:32 35.008028 -120.423939 142 6994ft 186kts
11-Feb-17 16:33 34.973329 -120.377671 142 6994ft 185kts
11-Feb-17 16:34 34.939479 -120.332585 143 6988ft 185kts
11-Feb-17 16:35 34.905459 -120.287307 143 6988ft 183kts
11-Feb-17 16:36 34.871455 -120.242156 143 6994ft 184kts
11-Feb-17 16:37 34.836866 -120.196304 143 6994ft 184kts
11-Feb-17 16:38 34.802245 -120.150457 143 6994ft 184kts
11-Feb-17 16:39 34.767487 -120.104525 143 6967ft 184kts
11-Feb-17 16:40 34.732804 -120.058701 143 6967ft 184kts
11-Feb-17 16:41 34.698203 -120.013057 143 6967ft 184kts
11-Feb-17 16:42 34.663481 -119.967314 143 6967ft 184kts
11-Feb-17 16:43 34.628948 -119.921878 143 6967ft 183kts
11-Feb-17 16:44 34.594349 -119.876429 143 6952ft 184kts
11-Feb-17 16:45 34.559293 -119.830503 142 6913ft 185kts
11-Feb-17 16:46 34.524428 -119.784807 142 6913ft 184kts
11-Feb-17 16:47 34.504260 -119.725973 108 6914ft 202kts
11-Feb-17 16:48 34.493137 -119.659256 109 6914ft 202kts
11-Feb-17 16:49 34.481900 -119.592717 109 6914ft 202kts
11-Feb-17 16:50 34.470679 -119.526287 109 6964ft 199kts
11-Feb-17 16:51 34.459416 -119.460079 109 6970ft 201kts
11-Feb-17 16:52 34.448073 -119.393723 109 6974ft 201kts
11-Feb-17 16:53 34.437609 -119.332458 110 7002ft 201kts
11-Feb-17 16:54 34.426308 -119.266527 110 7001ft 200kts
11-Feb-17 16:55 34.414901 -119.200356 110 7001ft 200kts
11-Feb-17 16:56 34.401602 -119.136836 102 7002ft 190kts
11-Feb-17 16:57 34.392061 -119.072583 107 7004ft 199kts
11-Feb-17 16:58 34.381315 -119.006832 110 7002ft 199kts
11-Feb-17 16:59 34.369877 -118.941290 110 7003ft 200kts
11-Feb-17 17:00 34.358111 -118.875715 117 7001ft 196kts
11-Feb-17 17:01 34.330255 -118.824860 150 7003ft 178kts
11-Feb-17 17:02 34.292099 -118.787089 150 6984ft 178kts
11-Feb-17 17:03 34.253528 -118.749109 150 6574ft 174kts
11-Feb-17 17:04 34.218350 -118.713970 150 5865ft 159kts
11-Feb-17 17:05 34.185705 -118.680827 147 4837ft 146kts
11-Feb-17 17:06 34.193853 -118.633929 61 3970ft 139kts
11-Feb-17 17:07 34.207526 -118.598796 85 3989ft 138kts
11-Feb-17 17:08 34.198732 -118.556134 92 3725ft 137kts
11-Feb-17 17:09 34.199057 -118.513650 89 3070ft 122kts
11-Feb-17 17:10 34.198957 -118.470578 88 2457ft 107kts
11-Feb-17 17:11 34.198596 -118.433159 88 1863ft 115kts
11-Feb-17 17:12 34.198272 -118.402734 88 1370ft 104kts
11-Feb-17 17:13 34.197880 -118.365786 88 788ft 77kts
11-Feb-17 17:14 34.199354 -118.359272 342 778ft 20kts
11-Feb-17 17:15 34.199688 -118.359648 254 778ft 0kts
11-Feb-17 17:16 34.199688 -118.359649 254 778ft 0kts
11-Feb-17 17:17 34.199688 -118.359649 254 778ft 0kts
11-Feb-17 17:18 34.199688 -118.359649 254 778ft 0kts
11-Feb-17 17:19 34.199688 -118.359649 254 778ft 0kts
11-Feb-17 17:20 34.199688 -118.359649 254 778ft 0kts
11-Feb-17 17:21 34.199688 -118.359649 254 778ft 0kts
11-Feb-17 17:22 34.199688 -118.359649 254 778ft 0kts
11-Feb-17 17:23 34.199688 -118.359649 254 778ft 0kts
11-Feb-17 17:24 34.199688 -118.359649 254 778ft 0kts
11-Feb-17 17:25 34.199688 -118.359649 254 778ft 0kts
11-Feb-17 17:26 34.199688 -118.359649 254 778ft 0kts
11-Feb-17 17:27 34.199688 -118.359649 254 778ft 0kts
11-Feb-17 17:28 34.199688 -118.359649 254 778ft 0kts

Navigation Log

Ident Type
Flight plan parsing failed, navigation log unavailable